Latest Weather Observations for Bombala AWS

IDN60801

Issued at 10:03 pm EDT Friday 24 November 2017 (issued every 30 minutes, with the page automatically refreshed every 10 minutes)

About weather observations | Map of weather stations | Latest weather observations for NSW | Other Formats
Station Details ID: 070328 Name: BOMBALA AWS Lat: -37.00 Lon: 149.23 Height: 760.5 m
Data from the previous 72 hours. | See also: Recent months at Bombala AWS
Date/Time
EDT
Temp
°C
App
Temp
°C
Dew
Point
°C
Rel
Hum
%
Delta-T
°C
Wind Press
QNH
hPa
Press
MSL
hPa
Rain since
9am
mm
Dir  Spd
km/h
Gust
km/h
Spd
kts
Gust
kts
24/10:00pm 13.2 12.6 11.6 90 0.9 NW 6 7 3 4 1020.3 1018.7 14.0
24/09:30pm 13.9 14.1 11.9 88 1.1 WNW 2 6 1 3 1020.1 1018.5 14.0
24/09:00pm 14.4 13.7 12.1 86 1.3 NW 7 9 4 5 1020.0 1018.4 14.0
24/08:30pm 14.9 14.4 12.2 84 1.5 W 6 6 3 3 1020.4 1018.8 14.0
24/08:00pm 15.1 13.4 12.6 85 1.4 W 13 17 7 9 1020.4 1018.8 14.0
24/07:30pm 15.3 12.4 12.8 85 1.4 WNW 20 28 11 15 1020.4 1018.8 14.0
24/07:00pm 15.7 11.3 12.8 83 1.7 NW 28 35 15 19 1020.1 1018.5 14.0
24/06:30pm 16.1 12.9 13.0 82 1.8 NW 22 30 12 16 1019.8 1018.2 13.8
24/06:00pm 17.0 14.0 10.6 66 3.5 NW 17 24 9 13 1019.6 1017.9 13.8
24/05:30pm 16.9 13.4 10.1 64 3.7 E 19 28 10 15 1018.5 1016.9 13.8
24/05:00pm 17.6 13.3 10.7 64 3.8 ESE 24 35 13 19 1017.5 1015.9 13.8
24/04:30pm 16.0 12.3 14.0 88 1.2 SE 26 35 14 19 1017.5 1015.9 13.6
24/04:00pm 17.6 14.5 13.5 77 2.4 SSW 22 32 12 17 1018.0 1016.4 7.8
24/03:30pm 17.2 15.2 11.5 69 3.2 NE 13 20 7 11 1016.6 1015.0 6.8
24/03:10pm 18.4 15.3 11.7 65 3.8 ENE 19 32 10 17 1016.5 1014.9 1.6
24/03:00pm 23.4 22.1 11.1 46 7.1 E 9 13 5 7 1016.6 1015.0 0.0
24/02:30pm 25.2 22.8 8.7 35 9.2 ESE 11 19 6 10 1016.4 1014.8 0.0
24/02:00pm 27.1 25.1 8.5 31 10.5 W 9 19 5 10 1016.5 1014.9 0.0
24/01:30pm 26.1 24.6 8.6 33 9.8 SSW 6 15 3 8 1016.9 1015.2 0.0
24/01:00pm 26.1 24.0 9.9 36 9.3 W 11 20 6 11 1017.5 1015.9 0.0
24/12:30pm 25.8 24.7 11.9 42 8.2 WSW 9 20 5 11 1017.7 1016.1 0.0
24/12:00pm 24.9 23.0 10.4 40 8.3 NW 11 17 6 9 1017.9 1016.3 0.0
24/11:30am 24.9 23.5 10.8 41 8.2 W 9 19 5 10 1018.0 1016.4 0.0
24/11:00am 23.9 21.5 11.3 45 7.3 WNW 15 19 8 10 1018.3 1016.6 0.0
24/10:30am 22.9 20.8 11.3 48 6.7 NW 13 20 7 11 1018.2 1016.5 0.0
24/10:00am 21.5 19.8 12.4 56 5.3 N 13 17 7 9 1018.0 1016.4 0.0
24/09:30am 19.9 18.3 12.7 63 4.2 NNW 13 17 7 9 1018.2 1016.5 0.0
24/09:00am 18.4 16.7 12.6 69 3.4 NNW 13 19 7 10 1018.2 1016.5 1.4
24/08:30am 17.1 15.9 12.8 76 2.5 NNW 11 15 6 8 1018.2 1016.5 1.4
24/08:00am 15.7 14.0 12.3 80 1.9 NNW 13 20 7 11 1017.8 1016.2 1.4
24/07:30am 14.0 13.4 11.7 86 1.3 NNW 6 9 3 5 1017.7 1016.1 1.4
24/07:00am 12.1 11.3 11.2 94 0.5 NNW 6 7 3 4 1017.6 1016.0 1.4
24/06:30am 11.2 10.5 10.1 93 0.6 NNW 4 7 2 4 1017.5 1015.9 1.4
24/06:00am 11.4 10.9 10.6 95 0.4 NW 4 7 2 4 1017.1 1015.4 1.4
24/05:30am 10.4 9.3 9.8 96 0.3 N 6 6 3 3 1016.5 1014.9 1.4
24/05:00am 10.1 8.6 9.3 95 0.4 NW 7 9 4 5 1016.3 1014.7 1.4
24/04:30am 10.7 9.4 9.9 95 0.4 N 7 9 4 5 1016.0 1014.3 1.4
24/04:00am 10.7 9.4 9.9 95 0.4 N 7 7 4 4 1015.8 1014.1 1.4
24/03:30am 11.4 10.7 10.1 92 0.7 WNW 4 6 2 3 1016.0 1014.3 1.4
24/03:00am 11.1 9.6 10.6 97 0.3 NW 9 11 5 6 1016.0 1014.3 1.4
24/02:30am 11.1 9.5 10.3 95 0.4 NNW 9 11 5 6 1016.0 1014.3 1.4
24/02:00am 11.0 9.5 10.5 97 0.3 NW 9 13 5 7 1016.0 1014.3 1.4
24/01:30am 10.4 9.3 10.1 98 0.2 NNW 6 7 3 4 1016.2 1014.6 1.4
24/01:00am 10.6 8.6 10.1 97 0.3 NW 11 13 6 7 1016.6 1015.0 1.4
24/12:30am 10.6 8.2 10.1 97 0.3 NNW 13 15 7 8 1016.6 1015.0 1.4
24/12:00am 11.3 10.2 10.0 92 0.7 NNW 6 7 3 4 1016.6 1015.0 1.4
 
Date/Time
EDT
Temp
°C
App
Temp
°C
Dew
Point
°C
Rel
Hum
%
Delta-T
°C
Wind Press
QNH
hPa
Press
MSL
hPa
Rain since
9am
mm
Dir  Spd
km/h
Gust
km/h
Spd
kts
Gust
kts
23/11:30pm 11.5 10.5 10.2 92 0.7 NNW 6 7 3 4 1016.9 1015.2 1.4
23/11:00pm 11.8 9.8 10.2 90 0.9 NNW 11 13 6 7 1017.2 1015.5 1.4
23/10:30pm 11.6 9.6 10.0 90 0.8 NNW 11 13 6 7 1017.6 1016.0 1.4
23/10:00pm 12.4 11.1 10.1 86 1.2 N 7 9 4 5 1017.7 1016.1 1.4
23/09:30pm 13.0 11.0 10.0 82 1.6 NW 11 15 6 8 1017.6 1016.0 1.4
23/09:00pm 13.1 9.9 10.1 82 1.6 WNW 17 22 9 12 1017.3 1015.7 1.4
23/08:30pm 13.0 11.1 10.5 85 1.4 WNW 11 15 6 8 1017.0 1015.3 1.2
23/08:00pm 13.4 10.5 10.9 85 1.4 NW 17 24 9 13 1016.8 1015.1 1.2
23/07:30pm 13.3 10.1 11.4 88 1.0 NNW 19 24 10 13 1016.5 1014.9 1.2
23/07:00pm 13.5 9.7 11.2 86 1.3 NW 22 32 12 17 1016.4 1014.8 1.2
23/06:30pm 13.9 8.9 10.9 82 1.6 NW 28 32 15 17 1016.6 1015.0 1.2
23/06:00pm 14.8 11.4 11.4 80 1.9 NNW 20 24 11 13 1016.8 1015.1 1.2
23/05:30pm 14.8 14.3 10.8 77 2.2 ESE 4 6 2 3 1017.1 1015.4 1.2
23/05:00pm 15.0 13.5 10.6 75 2.4 SE 9 19 5 10 1017.3 1015.7 1.2
23/04:30pm 15.2 11.5 10.2 72 2.7 S 20 30 11 16 1017.3 1015.7 1.2
23/04:00pm 16.0 11.6 10.3 69 3.1 SE 24 33 13 18 1016.1 1014.4 1.2
23/03:30pm 18.0 16.0 8.6 54 5.0 ESE 9 13 5 7 1015.6 1013.9 1.2
23/03:00pm 19.0 15.6 9.2 53 5.3 SSW 17 28 9 15 1015.6 1013.9 1.2
23/02:30pm 20.7 18.3 10.2 51 5.9 N 13 17 7 9 1015.0 1013.4 1.2
23/02:00pm 21.8 19.0 11.5 52 5.9 N 17 24 9 13 1015.1 1013.5 1.2
23/01:30pm 20.5 18.3 12.0 58 4.9 NNE 15 20 8 11 1015.6 1013.9 1.2
23/01:00pm 18.6 17.4 12.8 69 3.4 NE 11 15 6 8 1016.1 1014.4 1.2
23/12:30pm 17.8 17.0 11.8 68 3.4 NNE 7 13 4 7 1016.5 1014.9 1.2
23/12:00pm 16.7 14.4 11.6 72 2.9 ENE 15 20 8 11 1016.9 1015.2 1.2
23/11:30am 17.3 16.4 12.6 74 2.7 SW 9 13 5 7 1017.5 1015.9 0.8
23/11:00am 19.3 17.5 12.1 63 4.1 NNW 13 19 7 10 1016.9 1015.2 0.0
23/10:30am 19.1 15.9 11.9 63 4.1 NNW 20 24 11 13 1016.9 1015.2 0.0
23/10:00am 20.4 18.1 13.1 63 4.3 NW 17 22 9 12 1016.6 1015.0 0.0
23/09:30am 18.2 16.5 12.4 69 3.3 NNW 13 19 7 10 1016.8 1015.1 0.0
23/09:00am 16.6 16.4 12.9 79 2.1 NNW 6 9 3 5 1017.0 1015.3 0.0
23/08:30am 15.1 14.0 11.9 81 1.8 NNW 9 13 5 7 1017.0 1015.3 0.0
23/08:00am 15.1 14.6 12.6 85 1.4 N 7 9 4 5 1016.9 1015.2 0.0
23/07:30am 13.5 13.4 13.2 98 0.2 NW 6 7 3 4 1016.8 1015.1 0.0
23/07:00am 12.0 11.9 12.0 100 0.0 NNW 4 6 2 3 1016.6 1015.0 0.0
23/06:30am 11.3 11.0 11.3 100 0.0 NNW 4 6 2 3 1016.5 1014.9 0.0
23/06:00am 10.4 9.8 10.4 100 0.0 NNW 4 6 2 3 1016.5 1014.9 0.0
23/05:30am 10.4 9.4 10.4 100 0.0 NNW 6 6 3 3 1016.2 1014.6 0.0
23/05:00am 11.1 10.7 11.1 100 0.0 NNW 4 6 2 3 1016.2 1014.6 0.0
23/04:30am 11.0 10.5 10.8 99 0.1 NNW 4 6 2 3 1016.1 1014.4 0.0
23/04:00am 11.7 11.0 11.5 99 0.1 NNW 6 7 3 4 1016.1 1014.4 0.0
23/03:30am 11.9 11.1 11.7 99 0.1 N 7 7 4 4 1016.3 1014.7 0.0
23/03:00am 11.8 10.8 11.0 95 0.4 N 7 9 4 5 1016.5 1014.9 0.0
23/02:30am 12.4 11.6 11.6 95 0.4 N 7 9 4 5 1016.8 1015.1 0.0
23/02:00am 12.8 11.6 11.5 92 0.7 N 9 13 5 7 1017.0 1015.3 0.0
23/01:30am 14.0 12.2 12.0 88 1.1 NNE 13 17 7 9 1017.4 1015.8 0.0
23/01:00am 13.9 12.0 11.9 88 1.1 NNE 13 20 7 11 1017.8 1016.2 0.0
23/12:30am 13.9 11.3 11.9 88 1.1 NNE 17 24 9 13 1018.0 1016.4 0.0
23/12:00am 13.9 11.2 11.8 87 1.2 NNE 17 24 9 13 1018.4 1016.7 0.0
 
Date/Time
EDT
Temp
°C
App
Temp
°C
Dew
Point
°C
Rel
Hum
%
Delta-T
°C
Wind Press
QNH
hPa
Press
MSL
hPa
Rain since
9am
mm
Dir  Spd
km/h
Gust
km/h
Spd
kts
Gust
kts
22/11:30pm 13.8 12.0 12.0 89 1.0 NNE 13 19 7 10 1018.5 1016.9 0.0
22/11:00pm 13.7 11.9 12.1 90 0.9 NNE 13 19 7 10 1018.5 1016.9 0.0
22/10:30pm 13.8 12.0 12.0 89 1.0 NE 13 22 7 12 1018.7 1017.1 0.0
22/10:00pm 13.8 12.0 12.0 89 1.0 NE 13 26 7 14 1018.8 1017.2 0.0
22/09:30pm 13.8 12.3 12.0 89 1.0 NE 11 19 6 10 1018.7 1017.1 0.0
22/09:00pm 14.0 12.1 11.9 87 1.2 NE 13 20 7 11 1018.6 1017.0 0.0
22/08:30pm 14.1 11.9 12.1 88 1.1 ENE 15 24 8 13 1018.4 1016.7 0.0
22/08:00pm 14.1 11.9 12.0 87 1.2 ENE 15 20 8 11 1018.2 1016.5 0.0
22/07:30pm 14.8 12.2 12.1 84 1.5 ENE 17 28 9 15 1018.2 1016.5 0.0
22/07:00pm 15.7 12.8 12.3 80 1.9 ENE 19 30 10 16 1017.9 1016.3 0.0
22/06:30pm 16.5 13.0 12.3 76 2.4 ENE 22 32 12 17 1017.6 1016.0 0.0
22/06:00pm 18.0 15.9 12.5 70 3.2 ENE 15 24 8 13 1017.4 1015.8 0.0
22/05:30pm 18.3 14.7 11.8 66 3.7 ENE 22 32 12 17 1017.1 1015.4 0.0
22/05:00pm 19.4 16.0 12.4 64 4.1 ENE 22 32 12 17 1017.2 1015.5 0.0
22/04:30pm 20.1 16.8 11.6 58 4.9 ENE 20 30 11 16 1017.3 1015.7 0.0
22/04:00pm 20.8 17.6 12.0 57 5.1 ENE 20 30 11 16 1017.4 1015.8 0.0
22/03:30pm 22.0 19.2 12.5 54 5.6 ENE 19 28 10 15 1017.6 1016.0 0.0
22/03:00pm 21.7 18.7 9.3 45 6.9 NE 15 20 8 11 1017.9 1016.3 0.0
22/02:30pm 22.2 19.6 9.4 44 7.1 ENE 13 19 7 10 1018.3 1016.6 0.0
22/02:00pm 21.9 19.1 8.4 42 7.4 ENE 13 19 7 10 1018.7 1017.1 0.0
22/01:30pm 22.0 20.0 10.2 47 6.7 E 11 19 6 10 1019.0 1017.4 0.0
22/01:00pm 21.5 19.5 10.3 49 6.3 ENE 11 20 6 11 1019.4 1017.8 0.0
22/12:30pm 20.9 19.0 9.2 47 6.5 NE 9 20 5 11 1019.7 1018.1 0.0
22/12:00pm 21.4 19.1 7.6 41 7.4 N 9 17 5 9 1020.0 1018.4 0.0
22/11:30am 20.3 17.4 6.3 40 7.3 NNW 11 20 6 11 1020.2 1018.6 0.0
22/11:00am 19.3 18.2 10.6 57 4.9 NNE 7 13 4 7 1020.5 1018.9 0.0
22/10:30am 17.2 15.6 10.1 63 3.9 NNW 9 15 5 8 1020.8 1019.3 0.0
22/10:00am 15.6 14.4 10.4 71 2.8 NNW 7 13 4 7 1021.2 1019.6 0.0
22/09:30am 14.3 12.6 9.9 75 2.4 NNW 9 13 5 7 1021.5 1019.9 0.0
22/09:00am 13.2 10.6 9.5 78 2.0 NNW 13 19 7 10 1021.7 1020.1 0.0
22/08:30am 12.0 9.7 9.0 82 1.6 NNW 11 17 6 9 1021.7 1020.1 0.0
22/08:00am 10.5 8.6 8.9 90 0.8 NNW 9 11 5 6 1021.6 1020.0 0.0
22/07:30am 9.8 7.5 9.0 95 0.4 NNW 11 15 6 8 1021.7 1020.1 0.0
22/07:00am 8.6 6.6 8.5 99 0.1 NNW 9 9 5 5 1021.6 1020.0 0.0
22/06:30am 7.8 5.6 7.7 99 0.0 NW 9 11 5 6 1021.4 1019.8 0.0
22/06:00am 7.3 5.9 7.2 99 0.0 NW 4 9 2 5 1021.4 1019.8 0.0
22/05:30am 7.5 5.8 7.4 99 0.0 NW 6 9 3 5 1021.3 1019.7 0.0
22/05:00am 7.4 5.6 7.0 97 0.2 NNW 6 6 3 3 1021.3 1019.7 0.0
22/04:30am 8.7 7.2 8.3 97 0.2 N 6 7 3 4 1021.1 1019.5 0.0
22/04:00am 8.4 6.7 7.6 95 0.4 N 6 9 3 5 1021.3 1019.7 0.0
22/03:30am 9.2 7.7 8.4 95 0.4 NE 6 9 3 5 1021.4 1019.8 0.0
22/03:00am 9.4 7.8 8.6 95 0.4 NE 7 11 4 6 1021.6 1020.0 0.0
22/02:30am 9.6 8.2 9.0 96 0.3 NE 6 7 3 4 1021.7 1020.1 0.0
22/02:00am 9.8 8.4 9.0 95 0.4 NE 6 7 3 4 1022.0 1020.5 0.0
22/01:30am 10.0 7.8 9.2 95 0.4 NNE 11 15 6 8 1022.1 1020.6 0.0
22/01:00am 9.5 8.6 9.2 98 0.2 NE 4 7 2 4 1022.3 1020.8 0.0
22/12:30am 9.8 9.3 9.2 96 0.3 NNW 2 4 1 2 1022.6 1021.0 0.0
22/12:00am 10.3 9.5 9.5 95 0.4 NNE 4 7 2 4 1022.7 1021.1 0.0
 
Date/Time
EDT
Temp
°C
App
Temp
°C
Dew
Point
°C
Rel
Hum
%
Delta-T
°C
Wind Press
QNH
hPa
Press
MSL
hPa
Rain since
9am
mm
Dir  Spd
km/h
Gust
km/h
Spd
kts
Gust
kts
21/11:30pm 10.5 9.3 9.6 94 0.5 N 6 9 3 5 1022.9 1021.3 0.0
21/11:00pm 11.3 10.4 10.5 95 0.4 NNE 6 11 3 6 1023.3 1021.8 0.0
21/10:30pm 10.9 9.8 9.8 93 0.6 NE 6 13 3 7 1023.4 1021.9 0.0

Other Formats:

Comma delimited format used in spreadsheet applications
http://www.bom.gov.au/fwo/IDN60801/IDN60801.94929.axf

JavaScript Object Notation format (JSON) in row-major order
http://www.bom.gov.au/fwo/IDN60801/IDN60801.94929.json